sensor_id;sensor_type;location;lat;lon;timestamp;P1;durP1;ratioP1;P2;durP2;ratioP2
22752;SDS011;11543;43.144;24.684;2024-03-02T00:02:00;31.98;;;20.70;;
22752;SDS011;11543;43.144;24.684;2024-03-02T00:04:26;26.88;;;17.92;;
22752;SDS011;11543;43.144;24.684;2024-03-02T00:06:52;26.38;;;18.08;;
22752;SDS011;11543;43.144;24.684;2024-03-02T00:09:19;25.85;;;17.77;;
22752;SDS011;11543;43.144;24.684;2024-03-02T00:11:45;25.10;;;16.83;;
22752;SDS011;11543;43.144;24.684;2024-03-02T00:14:11;23.25;;;16.42;;
22752;SDS011;11543;43.144;24.684;2024-03-02T00:16:37;23.55;;;16.17;;
22752;SDS011;11543;43.144;24.684;2024-03-02T00:19:03;26.55;;;17.60;;
22752;SDS011;11543;43.144;24.684;2024-03-02T00:21:30;25.92;;;17.27;;
22752;SDS011;11543;43.144;24.684;2024-03-02T00:23:57;27.45;;;17.33;;
22752;SDS011;11543;43.144;24.684;2024-03-02T00:26:22;29.40;;;17.58;;
22752;SDS011;11543;43.144;24.684;2024-03-02T00:28:48;27.25;;;17.48;;
22752;SDS011;11543;43.144;24.684;2024-03-02T00:31:19;28.00;;;17.80;;
22752;SDS011;11543;43.144;24.684;2024-03-02T00:33:46;27.13;;;18.10;;
22752;SDS011;11543;43.144;24.684;2024-03-02T00:36:13;28.52;;;18.75;;
22752;SDS011;11543;43.144;24.684;2024-03-02T00:38:51;34.63;;;21.40;;
22752;SDS011;11543;43.144;24.684;2024-03-02T00:46:41;31.97;;;19.57;;
22752;SDS011;11543;43.144;24.684;2024-03-02T00:49:17;30.30;;;18.15;;
22752;SDS011;11543;43.144;24.684;2024-03-02T00:51:46;32.05;;;18.70;;
22752;SDS011;11543;43.144;24.684;2024-03-02T00:54:19;28.55;;;18.30;;
22752;SDS011;11543;43.144;24.684;2024-03-02T00:56:46;28.95;;;18.20;;
22752;SDS011;11543;43.144;24.684;2024-03-02T00:59:13;29.05;;;18.27;;
22752;SDS011;11543;43.144;24.684;2024-03-02T01:01:38;28.25;;;18.38;;
22752;SDS011;11543;43.144;24.684;2024-03-02T01:04:04;27.52;;;18.35;;
22752;SDS011;11543;43.144;24.684;2024-03-02T01:06:30;28.40;;;18.17;;
22752;SDS011;11543;43.144;24.684;2024-03-02T01:08:56;30.67;;;20.13;;
22752;SDS011;11543;43.144;24.684;2024-03-02T01:11:21;31.38;;;20.88;;
22752;SDS011;11543;43.144;24.684;2024-03-02T01:13:47;35.75;;;20.83;;
22752;SDS011;11543;43.144;24.684;2024-03-02T01:16:13;30.75;;;20.25;;
22752;SDS011;11543;43.144;24.684;2024-03-02T01:18:39;32.03;;;20.17;;
22752;SDS011;11543;43.144;24.684;2024-03-02T01:21:04;31.25;;;20.27;;
22752;SDS011;11543;43.144;24.684;2024-03-02T01:23:30;33.80;;;19.95;;
22752;SDS011;11543;43.144;24.684;2024-03-02T01:25:55;28.67;;;18.70;;
22752;SDS011;11543;43.144;24.684;2024-03-02T01:28:21;27.80;;;18.23;;
22752;SDS011;11543;43.144;24.684;2024-03-02T01:30:47;23.77;;;16.63;;
22752;SDS011;11543;43.144;24.684;2024-03-02T01:33:13;24.75;;;16.88;;
22752;SDS011;11543;43.144;24.684;2024-03-02T01:35:38;26.63;;;18.05;;
22752;SDS011;11543;43.144;24.684;2024-03-02T01:38:04;28.33;;;18.92;;
22752;SDS011;11543;43.144;24.684;2024-03-02T01:40:33;29.77;;;18.40;;
22752;SDS011;11543;43.144;24.684;2024-03-02T01:42:59;26.10;;;17.55;;
22752;SDS011;11543;43.144;24.684;2024-03-02T01:45:25;30.27;;;19.45;;
22752;SDS011;11543;43.144;24.684;2024-03-02T01:47:50;34.05;;;21.48;;
22752;SDS011;11543;43.144;24.684;2024-03-02T01:50:24;42.63;;;24.38;;
22752;SDS011;11543;43.144;24.684;2024-03-02T01:52:50;35.35;;;21.73;;
22752;SDS011;11543;43.144;24.684;2024-03-02T01:55:16;37.47;;;22.63;;
22752;SDS011;11543;43.144;24.684;2024-03-02T01:57:42;32.60;;;20.65;;
22752;SDS011;11543;43.144;24.684;2024-03-02T02:00:10;32.88;;;21.13;;
22752;SDS011;11543;43.144;24.684;2024-03-02T02:02:36;34.05;;;21.42;;
22752;SDS011;11543;43.144;24.684;2024-03-02T02:05:01;33.90;;;20.83;;
22752;SDS011;11543;43.144;24.684;2024-03-02T02:07:27;33.17;;;20.00;;
22752;SDS011;11543;43.144;24.684;2024-03-02T02:09:52;31.55;;;19.35;;
22752;SDS011;11543;43.144;24.684;2024-03-02T02:12:18;29.55;;;19.33;;
22752;SDS011;11543;43.144;24.684;2024-03-02T02:14:47;30.88;;;18.42;;
22752;SDS011;11543;43.144;24.684;2024-03-02T02:17:14;34.30;;;20.88;;
22752;SDS011;11543;43.144;24.684;2024-03-02T02:19:40;31.50;;;19.85;;
22752;SDS011;11543;43.144;24.684;2024-03-02T02:22:06;31.80;;;19.63;;
22752;SDS011;11543;43.144;24.684;2024-03-02T02:24:31;30.58;;;19.17;;
22752;SDS011;11543;43.144;24.684;2024-03-02T02:26:57;28.02;;;18.27;;
22752;SDS011;11543;43.144;24.684;2024-03-02T02:29:22;29.15;;;19.23;;
22752;SDS011;11543;43.144;24.684;2024-03-02T02:31:48;29.85;;;18.73;;
22752;SDS011;11543;43.144;24.684;2024-03-02T02:34:14;28.63;;;18.35;;
22752;SDS011;11543;43.144;24.684;2024-03-02T02:36:40;30.05;;;18.92;;
22752;SDS011;11543;43.144;24.684;2024-03-02T02:39:06;28.90;;;18.77;;
22752;SDS011;11543;43.144;24.684;2024-03-02T02:41:33;28.88;;;18.02;;
22752;SDS011;11543;43.144;24.684;2024-03-02T02:43:59;29.63;;;18.85;;
22752;SDS011;11543;43.144;24.684;2024-03-02T02:46:24;30.98;;;19.80;;
22752;SDS011;11543;43.144;24.684;2024-03-02T02:48:50;25.65;;;17.45;;
22752;SDS011;11543;43.144;24.684;2024-03-02T02:51:18;29.42;;;18.90;;
22752;SDS011;11543;43.144;24.684;2024-03-02T02:53:43;32.35;;;19.95;;
22752;SDS011;11543;43.144;24.684;2024-03-02T02:56:09;34.97;;;20.73;;
22752;SDS011;11543;43.144;24.684;2024-03-02T02:58:34;32.75;;;20.17;;
22752;SDS011;11543;43.144;24.684;2024-03-02T03:01:00;33.50;;;20.08;;
22752;SDS011;11543;43.144;24.684;2024-03-02T03:03:26;31.50;;;19.48;;
22752;SDS011;11543;43.144;24.684;2024-03-02T03:05:52;35.70;;;20.13;;
22752;SDS011;11543;43.144;24.684;2024-03-02T03:08:17;37.40;;;20.88;;
22752;SDS011;11543;43.144;24.684;2024-03-02T03:10:42;33.13;;;19.55;;
22752;SDS011;11543;43.144;24.684;2024-03-02T03:13:08;30.33;;;19.52;;
22752;SDS011;11543;43.144;24.684;2024-03-02T03:15:34;35.08;;;21.10;;
22752;SDS011;11543;43.144;24.684;2024-03-02T03:18:01;32.20;;;20.38;;
22752;SDS011;11543;43.144;24.684;2024-03-02T03:20:30;31.58;;;20.02;;
22752;SDS011;11543;43.144;24.684;2024-03-02T03:22:59;31.90;;;19.73;;
22752;SDS011;11543;43.144;24.684;2024-03-02T03:25:25;34.80;;;20.70;;
22752;SDS011;11543;43.144;24.684;2024-03-02T03:27:51;34.50;;;20.88;;
22752;SDS011;11543;43.144;24.684;2024-03-02T03:30:19;34.20;;;20.27;;
22752;SDS011;11543;43.144;24.684;2024-03-02T03:32:44;34.58;;;20.20;;
22752;SDS011;11543;43.144;24.684;2024-03-02T03:35:10;36.40;;;20.73;;
22752;SDS011;11543;43.144;24.684;2024-03-02T03:37:37;34.67;;;20.38;;
22752;SDS011;11543;43.144;24.684;2024-03-02T03:40:03;34.50;;;19.90;;
22752;SDS011;11543;43.144;24.684;2024-03-02T03:42:35;30.95;;;19.70;;
22752;SDS011;11543;43.144;24.684;2024-03-02T03:45:03;34.67;;;20.48;;
22752;SDS011;11543;43.144;24.684;2024-03-02T03:47:31;32.83;;;20.45;;
22752;SDS011;11543;43.144;24.684;2024-03-02T03:49:56;34.42;;;19.85;;
22752;SDS011;11543;43.144;24.684;2024-03-02T03:52:22;33.08;;;20.05;;
22752;SDS011;11543;43.144;24.684;2024-03-02T03:54:48;34.95;;;20.23;;
22752;SDS011;11543;43.144;24.684;2024-03-02T03:57:14;31.30;;;19.27;;
22752;SDS011;11543;43.144;24.684;2024-03-02T03:59:39;33.38;;;20.35;;
22752;SDS011;11543;43.144;24.684;2024-03-02T04:02:05;33.20;;;19.63;;
22752;SDS011;11543;43.144;24.684;2024-03-02T04:04:31;34.33;;;20.13;;
22752;SDS011;11543;43.144;24.684;2024-03-02T04:06:56;32.03;;;19.88;;
22752;SDS011;11543;43.144;24.684;2024-03-02T04:09:22;41.90;;;24.20;;
22752;SDS011;11543;43.144;24.684;2024-03-02T04:11:47;42.05;;;23.50;;
22752;SDS011;11543;43.144;24.684;2024-03-02T04:14:13;43.70;;;23.50;;
22752;SDS011;11543;43.144;24.684;2024-03-02T04:16:38;51.33;;;26.15;;
22752;SDS011;11543;43.144;24.684;2024-03-02T04:19:04;51.00;;;24.65;;
22752;SDS011;11543;43.144;24.684;2024-03-02T04:21:30;54.67;;;25.65;;
22752;SDS011;11543;43.144;24.684;2024-03-02T04:23:55;51.58;;;26.05;;
22752;SDS011;11543;43.144;24.684;2024-03-02T04:26:24;47.28;;;24.65;;
22752;SDS011;11543;43.144;24.684;2024-03-02T04:28:53;42.58;;;23.65;;
22752;SDS011;11543;43.144;24.684;2024-03-02T04:31:19;49.35;;;24.80;;
22752;SDS011;11543;43.144;24.684;2024-03-02T04:33:45;47.35;;;24.00;;
22752;SDS011;11543;43.144;24.684;2024-03-02T04:36:10;43.45;;;21.88;;
22752;SDS011;11543;43.144;24.684;2024-03-02T04:38:37;43.67;;;22.38;;
22752;SDS011;11543;43.144;24.684;2024-03-02T04:41:03;41.78;;;21.85;;
22752;SDS011;11543;43.144;24.684;2024-03-02T04:43:31;39.00;;;22.40;;
22752;SDS011;11543;43.144;24.684;2024-03-02T04:45:57;43.95;;;21.00;;
22752;SDS011;11543;43.144;24.684;2024-03-02T04:48:23;44.90;;;22.52;;
22752;SDS011;11543;43.144;24.684;2024-03-02T04:50:48;41.70;;;21.15;;
22752;SDS011;11543;43.144;24.684;2024-03-02T04:53:14;41.97;;;21.17;;
22752;SDS011;11543;43.144;24.684;2024-03-02T04:55:39;38.28;;;20.05;;
22752;SDS011;11543;43.144;24.684;2024-03-02T04:58:05;41.50;;;20.55;;
22752;SDS011;11543;43.144;24.684;2024-03-02T05:00:31;39.92;;;22.05;;
22752;SDS011;11543;43.144;24.684;2024-03-02T05:02:57;41.97;;;21.20;;
22752;SDS011;11543;43.144;24.684;2024-03-02T05:05:22;43.75;;;22.70;;
22752;SDS011;11543;43.144;24.684;2024-03-02T05:07:48;39.53;;;21.88;;
22752;SDS011;11543;43.144;24.684;2024-03-02T05:10:13;41.10;;;21.73;;
22752;SDS011;11543;43.144;24.684;2024-03-02T05:12:39;41.20;;;22.08;;
22752;SDS011;11543;43.144;24.684;2024-03-02T05:15:08;38.08;;;21.90;;
22752;SDS011;11543;43.144;24.684;2024-03-02T05:17:38;38.03;;;21.85;;
22752;SDS011;11543;43.144;24.684;2024-03-02T05:20:07;40.33;;;21.95;;
22752;SDS011;11543;43.144;24.684;2024-03-02T05:22:33;44.92;;;23.73;;
22752;SDS011;11543;43.144;24.684;2024-03-02T05:24:59;42.65;;;23.73;;
22752;SDS011;11543;43.144;24.684;2024-03-02T05:27:26;48.28;;;25.77;;
22752;SDS011;11543;43.144;24.684;2024-03-02T05:29:52;57.88;;;29.55;;
22752;SDS011;11543;43.144;24.684;2024-03-02T05:32:17;46.38;;;25.33;;
22752;SDS011;11543;43.144;24.684;2024-03-02T05:34:43;50.65;;;26.63;;
22752;SDS011;11543;43.144;24.684;2024-03-02T05:37:08;43.58;;;23.90;;
22752;SDS011;11543;43.144;24.684;2024-03-02T05:39:34;38.30;;;21.75;;
22752;SDS011;11543;43.144;24.684;2024-03-02T05:41:59;36.63;;;21.40;;
22752;SDS011;11543;43.144;24.684;2024-03-02T05:44:25;34.22;;;20.48;;
22752;SDS011;11543;43.144;24.684;2024-03-02T05:46:50;35.75;;;20.85;;
22752;SDS011;11543;43.144;24.684;2024-03-02T05:49:15;41.42;;;22.50;;
22752;SDS011;11543;43.144;24.684;2024-03-02T05:51:41;37.40;;;21.38;;
22752;SDS011;11543;43.144;24.684;2024-03-02T05:54:06;41.90;;;20.88;;
22752;SDS011;11543;43.144;24.684;2024-03-02T05:56:32;38.28;;;20.13;;
22752;SDS011;11543;43.144;24.684;2024-03-02T05:58:58;42.42;;;22.90;;
22752;SDS011;11543;43.144;24.684;2024-03-02T06:01:40;37.90;;;22.85;;
22752;SDS011;11543;43.144;24.684;2024-03-02T06:04:09;39.28;;;21.52;;
22752;SDS011;11543;43.144;24.684;2024-03-02T06:06:36;35.10;;;21.42;;
22752;SDS011;11543;43.144;24.684;2024-03-02T06:09:02;36.03;;;20.92;;
22752;SDS011;11543;43.144;24.684;2024-03-02T06:11:35;32.58;;;20.98;;
22752;SDS011;11543;43.144;24.684;2024-03-02T06:14:05;30.38;;;19.70;;
22752;SDS011;11543;43.144;24.684;2024-03-02T06:16:32;31.83;;;20.08;;
22752;SDS011;11543;43.144;24.684;2024-03-02T06:18:58;35.85;;;22.02;;
22752;SDS011;11543;43.144;24.684;2024-03-02T06:21:24;36.17;;;21.08;;
22752;SDS011;11543;43.144;24.684;2024-03-02T06:23:49;34.03;;;21.05;;
22752;SDS011;11543;43.144;24.684;2024-03-02T06:26:15;31.08;;;20.08;;
22752;SDS011;11543;43.144;24.684;2024-03-02T06:28:41;32.20;;;19.95;;
22752;SDS011;11543;43.144;24.684;2024-03-02T06:31:06;32.83;;;19.25;;
22752;SDS011;11543;43.144;24.684;2024-03-02T06:33:31;32.30;;;20.63;;
22752;SDS011;11543;43.144;24.684;2024-03-02T06:35:57;38.55;;;23.65;;
22752;SDS011;11543;43.144;24.684;2024-03-02T06:38:23;34.97;;;22.45;;
22752;SDS011;11543;43.144;24.684;2024-03-02T06:40:48;31.38;;;20.65;;
22752;SDS011;11543;43.144;24.684;2024-03-02T06:43:14;32.25;;;20.60;;
22752;SDS011;11543;43.144;24.684;2024-03-02T06:45:40;47.30;;;31.00;;
22752;SDS011;11543;43.144;24.684;2024-03-02T06:48:06;30.50;;;20.70;;
22752;SDS011;11543;43.144;24.684;2024-03-02T06:50:32;30.17;;;19.23;;
22752;SDS011;11543;43.144;24.684;2024-03-02T06:52:59;42.00;;;24.33;;
22752;SDS011;11543;43.144;24.684;2024-03-02T06:55:25;54.97;;;29.38;;
22752;SDS011;11543;43.144;24.684;2024-03-02T06:57:52;43.15;;;24.98;;
22752;SDS011;11543;43.144;24.684;2024-03-02T07:00:17;46.55;;;26.13;;
22752;SDS011;11543;43.144;24.684;2024-03-02T07:02:46;32.67;;;20.92;;
22752;SDS011;11543;43.144;24.684;2024-03-02T07:05:11;39.15;;;22.95;;
22752;SDS011;11543;43.144;24.684;2024-03-02T07:07:37;33.47;;;20.23;;
22752;SDS011;11543;43.144;24.684;2024-03-02T07:10:06;36.30;;;21.05;;
22752;SDS011;11543;43.144;24.684;2024-03-02T07:12:35;30.38;;;19.98;;
22752;SDS011;11543;43.144;24.684;2024-03-02T07:15:01;31.73;;;19.15;;
22752;SDS011;11543;43.144;24.684;2024-03-02T07:17:27;30.92;;;20.48;;
22752;SDS011;11543;43.144;24.684;2024-03-02T07:19:53;59.70;;;28.35;;
22752;SDS011;11543;43.144;24.684;2024-03-02T07:22:19;57.63;;;28.42;;
22752;SDS011;11543;43.144;24.684;2024-03-02T07:24:45;54.65;;;27.60;;
22752;SDS011;11543;43.144;24.684;2024-03-02T07:27:11;50.90;;;26.75;;
22752;SDS011;11543;43.144;24.684;2024-03-02T07:29:37;58.97;;;27.83;;
22752;SDS011;11543;43.144;24.684;2024-03-02T07:32:04;66.28;;;31.10;;
22752;SDS011;11543;43.144;24.684;2024-03-02T07:34:30;58.88;;;28.52;;
22752;SDS011;11543;43.144;24.684;2024-03-02T07:36:57;52.92;;;27.00;;
22752;SDS011;11543;43.144;24.684;2024-03-02T07:39:23;56.22;;;28.23;;
22752;SDS011;11543;43.144;24.684;2024-03-02T07:41:49;58.30;;;28.20;;
22752;SDS011;11543;43.144;24.684;2024-03-02T07:44:15;59.70;;;28.08;;
22752;SDS011;11543;43.144;24.684;2024-03-02T07:46:41;54.85;;;27.70;;
22752;SDS011;11543;43.144;24.684;2024-03-02T07:49:08;62.63;;;28.90;;
22752;SDS011;11543;43.144;24.684;2024-03-02T07:51:36;54.38;;;28.13;;
22752;SDS011;11543;43.144;24.684;2024-03-02T07:54:01;65.95;;;29.38;;
22752;SDS011;11543;43.144;24.684;2024-03-02T07:56:28;53.88;;;26.77;;
22752;SDS011;11543;43.144;24.684;2024-03-02T07:58:54;57.53;;;28.17;;
22752;SDS011;11543;43.144;24.684;2024-03-02T08:01:22;54.13;;;26.70;;
22752;SDS011;11543;43.144;24.684;2024-03-02T08:03:48;68.93;;;27.30;;
22752;SDS011;11543;43.144;24.684;2024-03-02T08:06:15;69.30;;;27.30;;
22752;SDS011;11543;43.144;24.684;2024-03-02T08:08:45;56.53;;;28.75;;
22752;SDS011;11543;43.144;24.684;2024-03-02T08:11:11;67.88;;;27.63;;
22752;SDS011;11543;43.144;24.684;2024-03-02T08:13:36;55.45;;;26.33;;
22752;SDS011;11543;43.144;24.684;2024-03-02T08:16:03;53.78;;;26.45;;
22752;SDS011;11543;43.144;24.684;2024-03-02T08:18:31;56.10;;;27.65;;
22752;SDS011;11543;43.144;24.684;2024-03-02T08:20:57;55.13;;;28.67;;
22752;SDS011;11543;43.144;24.684;2024-03-02T08:23:26;65.78;;;28.88;;
22752;SDS011;11543;43.144;24.684;2024-03-02T08:25:52;53.50;;;27.17;;
22752;SDS011;11543;43.144;24.684;2024-03-02T08:28:18;59.03;;;28.40;;
22752;SDS011;11543;43.144;24.684;2024-03-02T08:30:45;60.42;;;27.75;;
22752;SDS011;11543;43.144;24.684;2024-03-02T08:33:11;63.92;;;28.25;;
22752;SDS011;11543;43.144;24.684;2024-03-02T08:35:36;66.13;;;31.60;;
22752;SDS011;11543;43.144;24.684;2024-03-02T08:38:02;59.70;;;27.15;;
22752;SDS011;11543;43.144;24.684;2024-03-02T08:40:29;56.95;;;29.38;;
22752;SDS011;11543;43.144;24.684;2024-03-02T08:42:55;52.55;;;26.77;;
22752;SDS011;11543;43.144;24.684;2024-03-02T08:45:20;50.90;;;26.75;;
22752;SDS011;11543;43.144;24.684;2024-03-02T08:47:46;39.35;;;22.30;;
22752;SDS011;11543;43.144;24.684;2024-03-02T08:50:12;32.83;;;19.98;;
22752;SDS011;11543;43.144;24.684;2024-03-02T08:52:38;25.15;;;17.08;;
22752;SDS011;11543;43.144;24.684;2024-03-02T08:55:03;25.10;;;17.27;;
22752;SDS011;11543;43.144;24.684;2024-03-02T08:57:29;25.35;;;16.73;;
22752;SDS011;11543;43.144;24.684;2024-03-02T08:59:55;25.08;;;16.75;;
22752;SDS011;11543;43.144;24.684;2024-03-02T09:02:21;25.90;;;16.40;;
22752;SDS011;11543;43.144;24.684;2024-03-02T09:04:47;22.85;;;16.02;;
22752;SDS011;11543;43.144;24.684;2024-03-02T09:07:12;22.05;;;14.57;;
22752;SDS011;11543;43.144;24.684;2024-03-02T09:09:38;21.85;;;15.15;;
22752;SDS011;11543;43.144;24.684;2024-03-02T09:12:04;20.92;;;14.13;;
22752;SDS011;11543;43.144;24.684;2024-03-02T09:14:30;22.75;;;15.27;;
22752;SDS011;11543;43.144;24.684;2024-03-02T09:16:56;23.00;;;15.38;;
22752;SDS011;11543;43.144;24.684;2024-03-02T09:19:21;22.08;;;14.65;;
22752;SDS011;11543;43.144;24.684;2024-03-02T09:21:47;18.40;;;12.55;;
22752;SDS011;11543;43.144;24.684;2024-03-02T09:24:12;19.15;;;13.32;;
22752;SDS011;11543;43.144;24.684;2024-03-02T09:26:38;19.48;;;13.18;;
22752;SDS011;11543;43.144;24.684;2024-03-02T09:29:03;18.05;;;12.77;;
22752;SDS011;11543;43.144;24.684;2024-03-02T09:31:29;19.17;;;13.07;;
22752;SDS011;11543;43.144;24.684;2024-03-02T09:33:54;20.23;;;13.32;;
22752;SDS011;11543;43.144;24.684;2024-03-02T09:36:20;18.20;;;12.80;;
22752;SDS011;11543;43.144;24.684;2024-03-02T09:38:47;18.08;;;12.45;;
22752;SDS011;11543;43.144;24.684;2024-03-02T09:41:13;17.38;;;12.05;;
22752;SDS011;11543;43.144;24.684;2024-03-02T09:43:39;19.75;;;12.63;;
22752;SDS011;11543;43.144;24.684;2024-03-02T09:46:05;17.50;;;12.00;;
22752;SDS011;11543;43.144;24.684;2024-03-02T09:48:33;17.77;;;12.07;;
22752;SDS011;11543;43.144;24.684;2024-03-02T09:50:59;17.58;;;12.00;;
22752;SDS011;11543;43.144;24.684;2024-03-02T09:53:28;19.33;;;11.70;;
22752;SDS011;11543;43.144;24.684;2024-03-02T09:55:56;15.20;;;11.18;;
22752;SDS011;11543;43.144;24.684;2024-03-02T09:58:22;15.77;;;11.38;;
22752;SDS011;11543;43.144;24.684;2024-03-02T10:00:47;15.55;;;11.27;;
22752;SDS011;11543;43.144;24.684;2024-03-02T10:03:14;17.75;;;11.00;;
22752;SDS011;11543;43.144;24.684;2024-03-02T10:05:40;15.32;;;11.10;;
22752;SDS011;11543;43.144;24.684;2024-03-02T10:08:05;15.88;;;11.43;;
22752;SDS011;11543;43.144;24.684;2024-03-02T10:10:38;15.52;;;10.88;;
22752;SDS011;11543;43.144;24.684;2024-03-02T10:13:07;15.75;;;10.68;;
22752;SDS011;11543;43.144;24.684;2024-03-02T10:15:34;15.25;;;11.30;;
22752;SDS011;11543;43.144;24.684;2024-03-02T10:18:02;14.18;;;10.48;;
22752;SDS011;11543;43.144;24.684;2024-03-02T10:20:28;14.95;;;10.93;;
22752;SDS011;11543;43.144;24.684;2024-03-02T10:22:54;13.45;;;10.43;;
22752;SDS011;11543;43.144;24.684;2024-03-02T10:27:57;14.38;;;10.45;;
22752;SDS011;11543;43.144;24.684;2024-03-02T10:30:29;14.73;;;10.63;;
22752;SDS011;11543;43.144;24.684;2024-03-02T10:32:54;15.73;;;10.85;;
22752;SDS011;11543;43.144;24.684;2024-03-02T10:35:21;14.85;;;10.38;;
22752;SDS011;11543;43.144;24.684;2024-03-02T10:37:48;14.30;;;10.27;;
22752;SDS011;11543;43.144;24.684;2024-03-02T10:40:14;13.48;;;9.93;;
22752;SDS011;11543;43.144;24.684;2024-03-02T10:42:41;17.88;;;10.60;;
22752;SDS011;11543;43.144;24.684;2024-03-02T10:45:07;15.15;;;10.43;;
22752;SDS011;11543;43.144;24.684;2024-03-02T10:47:38;14.10;;;10.53;;
22752;SDS011;11543;43.144;24.684;2024-03-02T10:50:07;17.45;;;11.18;;
22752;SDS011;11543;43.144;24.684;2024-03-02T10:52:39;15.70;;;11.02;;
22752;SDS011;11543;43.144;24.684;2024-03-02T10:55:08;17.50;;;11.43;;
22752;SDS011;11543;43.144;24.684;2024-03-02T10:57:53;16.73;;;11.50;;
22752;SDS011;11543;43.144;24.684;2024-03-02T11:00:21;17.27;;;11.68;;
22752;SDS011;11543;43.144;24.684;2024-03-02T11:02:51;18.25;;;12.02;;
22752;SDS011;11543;43.144;24.684;2024-03-02T11:05:26;17.83;;;12.48;;
22752;SDS011;11543;43.144;24.684;2024-03-02T11:08:03;18.08;;;12.85;;
22752;SDS011;11543;43.144;24.684;2024-03-02T11:10:36;16.85;;;12.32;;
22752;SDS011;11543;43.144;24.684;2024-03-02T11:13:11;17.40;;;12.20;;
22752;SDS011;11543;43.144;24.684;2024-03-02T11:15:37;17.83;;;11.70;;
22752;SDS011;11543;43.144;24.684;2024-03-02T11:18:05;15.88;;;11.70;;
22752;SDS011;11543;43.144;24.684;2024-03-02T11:20:36;15.88;;;11.05;;
22752;SDS011;11543;43.144;24.684;2024-03-02T11:23:04;16.83;;;11.88;;
22752;SDS011;11543;43.144;24.684;2024-03-02T11:25:31;15.90;;;11.30;;
22752;SDS011;11543;43.144;24.684;2024-03-02T11:28:01;15.63;;;10.50;;
22752;SDS011;11543;43.144;24.684;2024-03-02T11:33:07;16.00;;;10.73;;
22752;SDS011;11543;43.144;24.684;2024-03-02T11:38:01;13.45;;;9.48;;
22752;SDS011;11543;43.144;24.684;2024-03-02T11:40:28;15.82;;;10.40;;
22752;SDS011;11543;43.144;24.684;2024-03-02T11:42:55;15.15;;;10.30;;
22752;SDS011;11543;43.144;24.684;2024-03-02T11:45:25;14.60;;;10.15;;
22752;SDS011;11543;43.144;24.684;2024-03-02T11:47:53;15.85;;;10.45;;
22752;SDS011;11543;43.144;24.684;2024-03-02T11:50:29;14.52;;;10.45;;
22752;SDS011;11543;43.144;24.684;2024-03-02T11:52:55;17.02;;;10.70;;
22752;SDS011;11543;43.144;24.684;2024-03-02T11:55:23;14.20;;;10.13;;
22752;SDS011;11543;43.144;24.684;2024-03-02T11:57:52;13.82;;;9.98;;
22752;SDS011;11543;43.144;24.684;2024-03-02T12:00:19;16.27;;;9.30;;
22752;SDS011;11543;43.144;24.684;2024-03-02T12:02:46;15.85;;;9.50;;
22752;SDS011;11543;43.144;24.684;2024-03-02T12:05:14;13.77;;;9.75;;
22752;SDS011;11543;43.144;24.684;2024-03-02T12:07:42;16.13;;;10.65;;
22752;SDS011;11543;43.144;24.684;2024-03-02T12:10:08;19.90;;;11.30;;
22752;SDS011;11543;43.144;24.684;2024-03-02T12:12:34;45.35;;;23.45;;
22752;SDS011;11543;43.144;24.684;2024-03-02T12:14:59;18.75;;;12.77;;
22752;SDS011;11543;43.144;24.684;2024-03-02T12:17:26;17.95;;;11.10;;
22752;SDS011;11543;43.144;24.684;2024-03-02T12:19:51;19.08;;;11.93;;
22752;SDS011;11543;43.144;24.684;2024-03-02T12:22:18;26.33;;;16.00;;
22752;SDS011;11543;43.144;24.684;2024-03-02T12:24:44;24.10;;;14.73;;
22752;SDS011;11543;43.144;24.684;2024-03-02T12:27:10;25.02;;;14.30;;
22752;SDS011;11543;43.144;24.684;2024-03-02T12:29:37;20.67;;;13.20;;
22752;SDS011;11543;43.144;24.684;2024-03-02T12:32:04;23.13;;;13.65;;
22752;SDS011;11543;43.144;24.684;2024-03-02T12:34:33;23.55;;;15.10;;
22752;SDS011;11543;43.144;24.684;2024-03-02T12:37:06;25.05;;;16.10;;
22752;SDS011;11543;43.144;24.684;2024-03-02T12:39:31;26.10;;;15.52;;
22752;SDS011;11543;43.144;24.684;2024-03-02T12:41:57;26.40;;;15.27;;
22752;SDS011;11543;43.144;24.684;2024-03-02T12:44:23;25.77;;;15.95;;
22752;SDS011;11543;43.144;24.684;2024-03-02T12:46:49;32.60;;;17.63;;
22752;SDS011;11543;43.144;24.684;2024-03-02T12:49:15;27.73;;;17.35;;
22752;SDS011;11543;43.144;24.684;2024-03-02T12:51:41;30.02;;;17.50;;
22752;SDS011;11543;43.144;24.684;2024-03-02T12:54:08;29.15;;;17.02;;
22752;SDS011;11543;43.144;24.684;2024-03-02T12:56:37;31.85;;;16.73;;
22752;SDS011;11543;43.144;24.684;2024-03-02T12:59:03;26.95;;;16.75;;
22752;SDS011;11543;43.144;24.684;2024-03-02T13:01:30;28.15;;;16.65;;
22752;SDS011;11543;43.144;24.684;2024-03-02T13:03:57;26.20;;;16.63;;
22752;SDS011;11543;43.144;24.684;2024-03-02T13:06:23;27.75;;;16.13;;
22752;SDS011;11543;43.144;24.684;2024-03-02T13:08:53;28.25;;;16.25;;
22752;SDS011;11543;43.144;24.684;2024-03-02T13:11:20;27.40;;;15.45;;
22752;SDS011;11543;43.144;24.684;2024-03-02T13:13:48;28.83;;;17.10;;
22752;SDS011;11543;43.144;24.684;2024-03-02T13:16:14;25.35;;;16.02;;
22752;SDS011;11543;43.144;24.684;2024-03-02T13:18:41;26.40;;;16.52;;
22752;SDS011;11543;43.144;24.684;2024-03-02T13:21:07;28.10;;;17.20;;
22752;SDS011;11543;43.144;24.684;2024-03-02T13:23:33;28.98;;;17.02;;
22752;SDS011;11543;43.144;24.684;2024-03-02T13:26:00;27.58;;;17.13;;
22752;SDS011;11543;43.144;24.684;2024-03-02T13:28:27;30.17;;;18.23;;
22752;SDS011;11543;43.144;24.684;2024-03-02T13:30:53;31.95;;;16.77;;
22752;SDS011;11543;43.144;24.684;2024-03-02T13:33:19;29.95;;;17.33;;
22752;SDS011;11543;43.144;24.684;2024-03-02T13:35:53;28.77;;;17.08;;
22752;SDS011;11543;43.144;24.684;2024-03-02T13:38:19;31.13;;;16.98;;
22752;SDS011;11543;43.144;24.684;2024-03-02T13:40:45;26.27;;;16.48;;
22752;SDS011;11543;43.144;24.684;2024-03-02T13:43:16;28.58;;;17.25;;
22752;SDS011;11543;43.144;24.684;2024-03-02T13:45:44;30.80;;;16.90;;
22752;SDS011;11543;43.144;24.684;2024-03-02T13:48:09;27.25;;;16.25;;
22752;SDS011;11543;43.144;24.684;2024-03-02T13:50:35;26.85;;;15.98;;
22752;SDS011;11543;43.144;24.684;2024-03-02T13:53:00;28.23;;;16.48;;
22752;SDS011;11543;43.144;24.684;2024-03-02T13:55:26;32.25;;;17.23;;
22752;SDS011;11543;43.144;24.684;2024-03-02T13:57:51;27.20;;;16.48;;
22752;SDS011;11543;43.144;24.684;2024-03-02T14:00:17;32.97;;;17.65;;
22752;SDS011;11543;43.144;24.684;2024-03-02T14:02:45;25.33;;;15.93;;
22752;SDS011;11543;43.144;24.684;2024-03-02T14:05:12;30.30;;;16.30;;
22752;SDS011;11543;43.144;24.684;2024-03-02T14:07:39;28.80;;;16.48;;
22752;SDS011;11543;43.144;24.684;2024-03-02T14:10:05;29.45;;;17.33;;
22752;SDS011;11543;43.144;24.684;2024-03-02T14:12:30;30.75;;;16.83;;
22752;SDS011;11543;43.144;24.684;2024-03-02T14:14:56;29.75;;;16.42;;
22752;SDS011;11543;43.144;24.684;2024-03-02T14:17:27;27.50;;;16.10;;
22752;SDS011;11543;43.144;24.684;2024-03-02T14:19:52;25.08;;;15.25;;